sensor_id;sensor_type;location;lat;lon;timestamp;temperature;humidity
26909;DHT22;14477;51.038;4.588;2022-10-16T00:01:42;15.90;99.90
26909;DHT22;14477;51.038;4.588;2022-10-16T00:04:08;15.90;99.90
26909;DHT22;14477;51.038;4.588;2022-10-16T00:06:34;15.80;99.90
26909;DHT22;14477;51.038;4.588;2022-10-16T00:09:00;15.80;99.90
26909;DHT22;14477;51.038;4.588;2022-10-16T00:11:31;15.80;99.90
26909;DHT22;14477;51.038;4.588;2022-10-16T00:14:04;15.80;99.90
26909;DHT22;14477;51.038;4.588;2022-10-16T00:16:30;15.80;99.90
26909;DHT22;14477;51.038;4.588;2022-10-16T00:18:56;15.80;99.90
26909;DHT22;14477;51.038;4.588;2022-10-16T00:21:25;15.80;99.90
26909;DHT22;14477;51.038;4.588;2022-10-16T00:23:57;15.80;99.90
26909;DHT22;14477;51.038;4.588;2022-10-16T00:26:23;15.70;99.90
26909;DHT22;14477;51.038;4.588;2022-10-16T00:28:50;15.70;99.90
26909;DHT22;14477;51.038;4.588;2022-10-16T00:31:17;15.70;99.90
26909;DHT22;14477;51.038;4.588;2022-10-16T00:33:43;15.70;99.90
26909;DHT22;14477;51.038;4.588;2022-10-16T00:36:15;15.70;99.90
26909;DHT22;14477;51.038;4.588;2022-10-16T00:38:41;15.70;99.90
26909;DHT22;14477;51.038;4.588;2022-10-16T00:41:09;15.60;99.90
26909;DHT22;14477;51.038;4.588;2022-10-16T00:43:47;15.60;99.90
26909;DHT22;14477;51.038;4.588;2022-10-16T00:46:23;15.60;99.90
26909;DHT22;14477;51.038;4.588;2022-10-16T00:51:23;15.60;99.90
26909;DHT22;14477;51.038;4.588;2022-10-16T00:53:50;15.60;99.90
26909;DHT22;14477;51.038;4.588;2022-10-16T00:56:16;15.50;99.90
26909;DHT22;14477;51.038;4.588;2022-10-16T00:58:42;15.50;99.90
26909;DHT22;14477;51.038;4.588;2022-10-16T01:01:07;15.50;99.90
26909;DHT22;14477;51.038;4.588;2022-10-16T01:03:35;15.40;99.90
26909;DHT22;14477;51.038;4.588;2022-10-16T01:06:40;15.50;99.90
26909;DHT22;14477;51.038;4.588;2022-10-16T01:09:16;15.40;99.90
26909;DHT22;14477;51.038;4.588;2022-10-16T01:12:10;15.40;99.90
26909;DHT22;14477;51.038;4.588;2022-10-16T01:14:45;15.40;99.90
26909;DHT22;14477;51.038;4.588;2022-10-16T01:17:35;15.40;99.90
26909;DHT22;14477;51.038;4.588;2022-10-16T01:20:08;15.40;99.90
26909;DHT22;14477;51.038;4.588;2022-10-16T01:22:49;15.40;99.90
26909;DHT22;14477;51.038;4.588;2022-10-16T01:25:27;15.40;99.90
26909;DHT22;14477;51.038;4.588;2022-10-16T01:27:57;15.40;99.90
26909;DHT22;14477;51.038;4.588;2022-10-16T01:30:28;15.40;99.90
26909;DHT22;14477;51.038;4.588;2022-10-16T01:33:03;15.40;99.90
26909;DHT22;14477;51.038;4.588;2022-10-16T01:35:36;15.40;99.90
26909;DHT22;14477;51.038;4.588;2022-10-16T01:38:25;15.40;99.90
26909;DHT22;14477;51.038;4.588;2022-10-16T01:40:58;15.40;99.90
26909;DHT22;14477;51.038;4.588;2022-10-16T01:43:28;15.40;99.90
26909;DHT22;14477;51.038;4.588;2022-10-16T01:45:57;15.40;99.90
26909;DHT22;14477;51.038;4.588;2022-10-16T01:48:24;15.40;99.90
26909;DHT22;14477;51.038;4.588;2022-10-16T01:51:08;15.40;99.90
26909;DHT22;14477;51.038;4.588;2022-10-16T01:53:35;15.40;99.90
26909;DHT22;14477;51.038;4.588;2022-10-16T01:56:03;15.30;99.90
26909;DHT22;14477;51.038;4.588;2022-10-16T01:58:30;15.40;99.90
26909;DHT22;14477;51.038;4.588;2022-10-16T02:01:01;15.30;99.90
26909;DHT22;14477;51.038;4.588;2022-10-16T02:03:28;15.30;99.90
26909;DHT22;14477;51.038;4.588;2022-10-16T02:05:56;15.40;99.90
26909;DHT22;14477;51.038;4.588;2022-10-16T02:08:24;15.30;99.90
26909;DHT22;14477;51.038;4.588;2022-10-16T02:10:51;15.40;99.90
26909;DHT22;14477;51.038;4.588;2022-10-16T02:13:29;15.30;99.90
26909;DHT22;14477;51.038;4.588;2022-10-16T02:15:56;15.30;99.90
26909;DHT22;14477;51.038;4.588;2022-10-16T02:18:22;15.30;99.90
26909;DHT22;14477;51.038;4.588;2022-10-16T02:21:04;15.30;99.90
26909;DHT22;14477;51.038;4.588;2022-10-16T02:23:43;15.30;99.90
26909;DHT22;14477;51.038;4.588;2022-10-16T02:26:15;15.30;99.90
26909;DHT22;14477;51.038;4.588;2022-10-16T02:28:46;15.30;99.90
26909;DHT22;14477;51.038;4.588;2022-10-16T02:31:17;15.30;99.90
26909;DHT22;14477;51.038;4.588;2022-10-16T02:33:45;15.20;99.90
26909;DHT22;14477;51.038;4.588;2022-10-16T02:36:11;15.20;99.90
26909;DHT22;14477;51.038;4.588;2022-10-16T02:38:39;15.30;99.90
26909;DHT22;14477;51.038;4.588;2022-10-16T02:41:05;15.20;99.90
26909;DHT22;14477;51.038;4.588;2022-10-16T02:43:31;15.20;99.90
26909;DHT22;14477;51.038;4.588;2022-10-16T02:45:59;15.20;99.90
26909;DHT22;14477;51.038;4.588;2022-10-16T02:48:24;15.20;99.90
26909;DHT22;14477;51.038;4.588;2022-10-16T02:50:50;15.20;99.90
26909;DHT22;14477;51.038;4.588;2022-10-16T02:53:16;15.20;99.90
26909;DHT22;14477;51.038;4.588;2022-10-16T02:55:42;15.20;99.90
26909;DHT22;14477;51.038;4.588;2022-10-16T02:58:08;15.20;99.90
26909;DHT22;14477;51.038;4.588;2022-10-16T03:00:33;15.20;99.90
26909;DHT22;14477;51.038;4.588;2022-10-16T03:02:59;15.20;99.90
26909;DHT22;14477;51.038;4.588;2022-10-16T03:05:24;15.20;99.90
26909;DHT22;14477;51.038;4.588;2022-10-16T03:07:50;15.20;99.90
26909;DHT22;14477;51.038;4.588;2022-10-16T03:10:18;15.20;99.90
26909;DHT22;14477;51.038;4.588;2022-10-16T03:12:43;15.20;99.90
26909;DHT22;14477;51.038;4.588;2022-10-16T03:15:09;15.20;99.90
26909;DHT22;14477;51.038;4.588;2022-10-16T03:17:35;15.20;99.90
26909;DHT22;14477;51.038;4.588;2022-10-16T03:20:01;15.20;99.90
26909;DHT22;14477;51.038;4.588;2022-10-16T03:22:26;15.20;99.90
26909;DHT22;14477;51.038;4.588;2022-10-16T03:24:52;15.30;99.90
26909;DHT22;14477;51.038;4.588;2022-10-16T03:27:18;15.30;99.90
26909;DHT22;14477;51.038;4.588;2022-10-16T03:29:43;15.30;99.90
26909;DHT22;14477;51.038;4.588;2022-10-16T03:32:09;15.30;99.90
26909;DHT22;14477;51.038;4.588;2022-10-16T03:34:34;15.30;99.90
26909;DHT22;14477;51.038;4.588;2022-10-16T03:37:00;15.30;99.90
26909;DHT22;14477;51.038;4.588;2022-10-16T03:39:26;15.40;99.90
26909;DHT22;14477;51.038;4.588;2022-10-16T03:41:52;15.40;99.90
26909;DHT22;14477;51.038;4.588;2022-10-16T03:44:18;15.40;99.90
26909;DHT22;14477;51.038;4.588;2022-10-16T03:46:43;15.40;99.90
26909;DHT22;14477;51.038;4.588;2022-10-16T03:49:09;15.40;99.90
26909;DHT22;14477;51.038;4.588;2022-10-16T03:51:34;15.40;99.90
26909;DHT22;14477;51.038;4.588;2022-10-16T03:54:00;15.40;99.90
26909;DHT22;14477;51.038;4.588;2022-10-16T03:56:26;15.40;99.90
26909;DHT22;14477;51.038;4.588;2022-10-16T03:58:51;15.40;99.90
26909;DHT22;14477;51.038;4.588;2022-10-16T04:01:17;15.40;99.90
26909;DHT22;14477;51.038;4.588;2022-10-16T04:03:42;15.40;99.90
26909;DHT22;14477;51.038;4.588;2022-10-16T04:06:08;15.40;99.90
26909;DHT22;14477;51.038;4.588;2022-10-16T04:08:34;15.40;99.90
26909;DHT22;14477;51.038;4.588;2022-10-16T04:11:02;15.40;99.90
26909;DHT22;14477;51.038;4.588;2022-10-16T04:13:28;15.40;99.90
26909;DHT22;14477;51.038;4.588;2022-10-16T04:15:54;15.40;99.90
26909;DHT22;14477;51.038;4.588;2022-10-16T04:18:19;15.40;99.90
26909;DHT22;14477;51.038;4.588;2022-10-16T04:20:45;15.40;99.90
26909;DHT22;14477;51.038;4.588;2022-10-16T04:23:10;15.40;99.90
26909;DHT22;14477;51.038;4.588;2022-10-16T04:25:36;15.40;99.90
26909;DHT22;14477;51.038;4.588;2022-10-16T04:28:02;15.30;99.90
26909;DHT22;14477;51.038;4.588;2022-10-16T04:30:27;15.30;99.90
26909;DHT22;14477;51.038;4.588;2022-10-16T04:32:53;15.30;99.90
26909;DHT22;14477;51.038;4.588;2022-10-16T04:35:20;15.30;99.90
26909;DHT22;14477;51.038;4.588;2022-10-16T04:37:46;15.30;99.90
26909;DHT22;14477;51.038;4.588;2022-10-16T04:40:12;15.20;99.90
26909;DHT22;14477;51.038;4.588;2022-10-16T04:42:38;15.20;99.90
26909;DHT22;14477;51.038;4.588;2022-10-16T04:45:05;15.30;99.90
26909;DHT22;14477;51.038;4.588;2022-10-16T04:47:31;15.20;99.90
26909;DHT22;14477;51.038;4.588;2022-10-16T04:49:56;15.20;99.90
26909;DHT22;14477;51.038;4.588;2022-10-16T04:52:22;15.20;99.90
26909;DHT22;14477;51.038;4.588;2022-10-16T04:54:50;15.20;99.90
26909;DHT22;14477;51.038;4.588;2022-10-16T04:57:16;15.20;99.90
26909;DHT22;14477;51.038;4.588;2022-10-16T04:59:42;15.10;99.90
26909;DHT22;14477;51.038;4.588;2022-10-16T05:02:07;15.10;99.90
26909;DHT22;14477;51.038;4.588;2022-10-16T05:04:33;15.10;99.90
26909;DHT22;14477;51.038;4.588;2022-10-16T05:06:59;15.10;99.90
26909;DHT22;14477;51.038;4.588;2022-10-16T05:09:24;15.10;99.90
26909;DHT22;14477;51.038;4.588;2022-10-16T05:11:50;15.10;99.90
26909;DHT22;14477;51.038;4.588;2022-10-16T05:14:15;15.10;99.90
26909;DHT22;14477;51.038;4.588;2022-10-16T05:16:41;15.10;99.90
26909;DHT22;14477;51.038;4.588;2022-10-16T05:19:07;15.10;99.90
26909;DHT22;14477;51.038;4.588;2022-10-16T05:21:32;15.10;99.90
26909;DHT22;14477;51.038;4.588;2022-10-16T05:23:58;15.10;99.90
26909;DHT22;14477;51.038;4.588;2022-10-16T05:26:23;15.00;99.90
26909;DHT22;14477;51.038;4.588;2022-10-16T05:28:49;15.00;99.90
26909;DHT22;14477;51.038;4.588;2022-10-16T05:31:15;15.00;99.90
26909;DHT22;14477;51.038;4.588;2022-10-16T05:33:41;15.00;99.90
26909;DHT22;14477;51.038;4.588;2022-10-16T05:36:08;15.00;99.90
26909;DHT22;14477;51.038;4.588;2022-10-16T05:38:37;15.00;99.90
26909;DHT22;14477;51.038;4.588;2022-10-16T05:41:04;15.00;99.90
26909;DHT22;14477;51.038;4.588;2022-10-16T05:43:31;15.00;99.90
26909;DHT22;14477;51.038;4.588;2022-10-16T05:45:59;14.90;99.90
26909;DHT22;14477;51.038;4.588;2022-10-16T05:48:25;14.90;99.90
26909;DHT22;14477;51.038;4.588;2022-10-16T05:51:05;14.90;99.90
26909;DHT22;14477;51.038;4.588;2022-10-16T05:53:36;14.90;99.90
26909;DHT22;14477;51.038;4.588;2022-10-16T05:56:03;14.90;99.90
26909;DHT22;14477;51.038;4.588;2022-10-16T05:58:36;14.90;99.90
26909;DHT22;14477;51.038;4.588;2022-10-16T06:01:08;14.80;99.90
26909;DHT22;14477;51.038;4.588;2022-10-16T06:03:34;14.80;99.90
26909;DHT22;14477;51.038;4.588;2022-10-16T06:06:17;14.80;99.90
26909;DHT22;14477;51.038;4.588;2022-10-16T06:08:44;14.70;99.90
26909;DHT22;14477;51.038;4.588;2022-10-16T06:11:15;14.70;99.90
26909;DHT22;14477;51.038;4.588;2022-10-16T06:13:41;14.70;99.90
26909;DHT22;14477;51.038;4.588;2022-10-16T06:16:09;14.70;99.90
26909;DHT22;14477;51.038;4.588;2022-10-16T06:18:34;14.70;99.90
26909;DHT22;14477;51.038;4.588;2022-10-16T06:21:07;14.70;99.90
26909;DHT22;14477;51.038;4.588;2022-10-16T06:23:33;14.70;99.90
26909;DHT22;14477;51.038;4.588;2022-10-16T06:26:10;14.60;99.90
26909;DHT22;14477;51.038;4.588;2022-10-16T06:28:37;14.60;99.90
26909;DHT22;14477;51.038;4.588;2022-10-16T06:31:03;14.70;99.90
26909;DHT22;14477;51.038;4.588;2022-10-16T06:33:29;14.70;99.90
26909;DHT22;14477;51.038;4.588;2022-10-16T06:36:15;14.70;99.90
26909;DHT22;14477;51.038;4.588;2022-10-16T06:38:42;14.70;99.90
26909;DHT22;14477;51.038;4.588;2022-10-16T06:41:11;14.80;99.90
26909;DHT22;14477;51.038;4.588;2022-10-16T06:43:37;14.80;99.90
26909;DHT22;14477;51.038;4.588;2022-10-16T06:46:05;14.90;99.90
26909;DHT22;14477;51.038;4.588;2022-10-16T06:48:33;14.90;99.90
26909;DHT22;14477;51.038;4.588;2022-10-16T06:51:06;14.90;99.90
26909;DHT22;14477;51.038;4.588;2022-10-16T06:53:37;15.00;99.90
26909;DHT22;14477;51.038;4.588;2022-10-16T06:58:41;15.20;99.90
26909;DHT22;14477;51.038;4.588;2022-10-16T07:01:07;15.30;99.90
26909;DHT22;14477;51.038;4.588;2022-10-16T07:03:35;15.30;99.90
26909;DHT22;14477;51.038;4.588;2022-10-16T07:06:05;15.40;99.90
26909;DHT22;14477;51.038;4.588;2022-10-16T07:08:33;15.50;99.90
26909;DHT22;14477;51.038;4.588;2022-10-16T07:11:04;15.50;99.90
26909;DHT22;14477;51.038;4.588;2022-10-16T07:13:33;15.60;99.90
26909;DHT22;14477;51.038;4.588;2022-10-16T07:16:14;15.70;99.90
26909;DHT22;14477;51.038;4.588;2022-10-16T07:18:40;15.80;99.90
26909;DHT22;14477;51.038;4.588;2022-10-16T07:21:10;16.00;99.90
26909;DHT22;14477;51.038;4.588;2022-10-16T07:23:36;16.30;99.90
26909;DHT22;14477;51.038;4.588;2022-10-16T07:26:02;16.70;99.90
26909;DHT22;14477;51.038;4.588;2022-10-16T07:28:28;17.10;99.90
26909;DHT22;14477;51.038;4.588;2022-10-16T07:30:54;17.40;99.90
26909;DHT22;14477;51.038;4.588;2022-10-16T07:33:20;17.70;99.90
26909;DHT22;14477;51.038;4.588;2022-10-16T07:35:50;18.00;99.90
26909;DHT22;14477;51.038;4.588;2022-10-16T07:38:16;18.30;99.90
26909;DHT22;14477;51.038;4.588;2022-10-16T07:40:42;18.70;99.90
26909;DHT22;14477;51.038;4.588;2022-10-16T07:43:07;19.10;99.90
26909;DHT22;14477;51.038;4.588;2022-10-16T07:45:33;19.50;99.90
26909;DHT22;14477;51.038;4.588;2022-10-16T07:47:59;19.90;99.90
26909;DHT22;14477;51.038;4.588;2022-10-16T07:50:24;20.30;99.90
26909;DHT22;14477;51.038;4.588;2022-10-16T07:52:50;20.60;99.90
26909;DHT22;14477;51.038;4.588;2022-10-16T07:55:15;20.70;99.90
26909;DHT22;14477;51.038;4.588;2022-10-16T07:57:41;20.70;99.90
26909;DHT22;14477;51.038;4.588;2022-10-16T08:00:07;20.60;99.90
26909;DHT22;14477;51.038;4.588;2022-10-16T08:02:39;20.50;99.90
26909;DHT22;14477;51.038;4.588;2022-10-16T08:05:05;20.30;99.90
26909;DHT22;14477;51.038;4.588;2022-10-16T08:07:31;20.10;99.90
26909;DHT22;14477;51.038;4.588;2022-10-16T08:09:57;19.90;99.90
26909;DHT22;14477;51.038;4.588;2022-10-16T08:12:25;19.70;99.90
26909;DHT22;14477;51.038;4.588;2022-10-16T08:14:51;19.50;99.90
26909;DHT22;14477;51.038;4.588;2022-10-16T08:17:17;19.30;99.90
26909;DHT22;14477;51.038;4.588;2022-10-16T08:19:46;19.10;99.90
26909;DHT22;14477;51.038;4.588;2022-10-16T08:22:13;18.90;99.90
26909;DHT22;14477;51.038;4.588;2022-10-16T08:24:39;18.80;99.90
26909;DHT22;14477;51.038;4.588;2022-10-16T08:27:05;18.70;99.90
26909;DHT22;14477;51.038;4.588;2022-10-16T08:29:31;18.60;99.90
26909;DHT22;14477;51.038;4.588;2022-10-16T08:31:56;18.50;99.90
26909;DHT22;14477;51.038;4.588;2022-10-16T08:34:22;18.40;99.90
26909;DHT22;14477;51.038;4.588;2022-10-16T08:36:47;18.40;99.90
26909;DHT22;14477;51.038;4.588;2022-10-16T08:39:13;18.40;99.90
26909;DHT22;14477;51.038;4.588;2022-10-16T08:50:08;19.40;99.90
26909;DHT22;14477;51.038;4.588;2022-10-16T08:52:39;19.90;99.90
26909;DHT22;14477;51.038;4.588;2022-10-16T08:55:05;20.40;99.90
26909;DHT22;14477;51.038;4.588;2022-10-16T08:57:31;20.90;99.90
26909;DHT22;14477;51.038;4.588;2022-10-16T09:00:11;21.50;99.90
26909;DHT22;14477;51.038;4.588;2022-10-16T09:02:44;22.10;99.90
26909;DHT22;14477;51.038;4.588;2022-10-16T09:08:08;23.10;99.90
26909;DHT22;14477;51.038;4.588;2022-10-16T09:14:15;24.20;99.90
26909;DHT22;14477;51.038;4.588;2022-10-16T09:16:48;24.80;99.90
26909;DHT22;14477;51.038;4.588;2022-10-16T09:21:55;25.70;99.90
26909;DHT22;14477;51.038;4.588;2022-10-16T09:24:24;26.00;99.90
26909;DHT22;14477;51.038;4.588;2022-10-16T09:26:50;26.30;99.90
26909;DHT22;14477;51.038;4.588;2022-10-16T09:29:18;26.50;99.90
26909;DHT22;14477;51.038;4.588;2022-10-16T09:31:48;26.70;99.90
26909;DHT22;14477;51.038;4.588;2022-10-16T09:34:35;27.00;99.90
26909;DHT22;14477;51.038;4.588;2022-10-16T09:37:05;27.30;99.10
26909;DHT22;14477;51.038;4.588;2022-10-16T09:39:54;27.60;99.90
26909;DHT22;14477;51.038;4.588;2022-10-16T09:42:30;27.80;95.80
26909;DHT22;14477;51.038;4.588;2022-10-16T09:44:56;27.90;96.90
26909;DHT22;14477;51.038;4.588;2022-10-16T09:47:30;28.00;99.90
26909;DHT22;14477;51.038;4.588;2022-10-16T09:50:02;28.10;97.00
26909;DHT22;14477;51.038;4.588;2022-10-16T09:52:30;28.20;96.80
26909;DHT22;14477;51.038;4.588;2022-10-16T09:54:58;28.20;99.40
26909;DHT22;14477;51.038;4.588;2022-10-16T09:57:25;28.40;99.90
26909;DHT22;14477;51.038;4.588;2022-10-16T09:59:53;28.70;99.90
26909;DHT22;14477;51.038;4.588;2022-10-16T10:05:26;29.20;98.50
26909;DHT22;14477;51.038;4.588;2022-10-16T10:07:58;29.30;95.80
26909;DHT22;14477;51.038;4.588;2022-10-16T10:10:29;29.30;95.60
26909;DHT22;14477;51.038;4.588;2022-10-16T10:12:56;29.30;96.50
26909;DHT22;14477;51.038;4.588;2022-10-16T10:15:22;29.40;99.90
26909;DHT22;14477;51.038;4.588;2022-10-16T10:17:54;29.60;99.90
26909;DHT22;14477;51.038;4.588;2022-10-16T10:20:29;29.80;98.00
26909;DHT22;14477;51.038;4.588;2022-10-16T10:22:57;30.10;96.70
26909;DHT22;14477;51.038;4.588;2022-10-16T10:25:37;30.30;99.90
26909;DHT22;14477;51.038;4.588;2022-10-16T10:30:41;30.90;95.00
26909;DHT22;14477;51.038;4.588;2022-10-16T10:35:48;31.40;96.40
26909;DHT22;14477;51.038;4.588;2022-10-16T10:44:19;31.60;90.90
26909;DHT22;14477;51.038;4.588;2022-10-16T10:46:57;31.80;92.40
26909;DHT22;14477;51.038;4.588;2022-10-16T11:01:13;32.00;86.80
26909;DHT22;14477;51.038;4.588;2022-10-16T11:06:20;30.90;83.40
26909;DHT22;14477;51.038;4.588;2022-10-16T11:09:15;30.20;81.70
26909;DHT22;14477;51.038;4.588;2022-10-16T11:12:11;29.60;81.60
26909;DHT22;14477;51.038;4.588;2022-10-16T11:14:48;29.00;83.60
26909;DHT22;14477;51.038;4.588;2022-10-16T11:17:23;28.50;89.90
26909;DHT22;14477;51.038;4.588;2022-10-16T11:20:13;28.10;86.10
26909;DHT22;14477;51.038;4.588;2022-10-16T11:22:56;27.70;85.10
26909;DHT22;14477;51.038;4.588;2022-10-16T11:28:14;27.40;94.00
26909;DHT22;14477;51.038;4.588;2022-10-16T11:40:53;27.10;94.00
26909;DHT22;14477;51.038;4.588;2022-10-16T11:43:34;27.00;93.20
26909;DHT22;14477;51.038;4.588;2022-10-16T11:46:08;27.00;90.70
26909;DHT22;14477;51.038;4.588;2022-10-16T11:48:51;27.00;93.70
26909;DHT22;14477;51.038;4.588;2022-10-16T11:51:29;27.10;93.00
26909;DHT22;14477;51.038;4.588;2022-10-16T11:54:05;27.20;93.20
26909;DHT22;14477;51.038;4.588;2022-10-16T11:56:38;27.40;94.50
26909;DHT22;14477;51.038;4.588;2022-10-16T11:59:38;27.70;95.80
26909;DHT22;14477;51.038;4.588;2022-10-16T12:02:35;28.10;92.50
26909;DHT22;14477;51.038;4.588;2022-10-16T12:05:29;28.40;94.10
26909;DHT22;14477;51.038;4.588;2022-10-16T12:10:34;29.30;94.10
26909;DHT22;14477;51.038;4.588;2022-10-16T12:16:23;29.50;89.60
26909;DHT22;14477;51.038;4.588;2022-10-16T12:18:50;29.40;86.40
26909;DHT22;14477;51.038;4.588;2022-10-16T12:21:30;29.20;91.50
26909;DHT22;14477;51.038;4.588;2022-10-16T12:24:02;29.10;90.00
26909;DHT22;14477;51.038;4.588;2022-10-16T12:26:32;28.90;90.70
26909;DHT22;14477;51.038;4.588;2022-10-16T12:31:43;28.70;86.60
26909;DHT22;14477;51.038;4.588;2022-10-16T12:34:41;28.70;89.90
26909;DHT22;14477;51.038;4.588;2022-10-16T12:37:26;28.60;87.20
26909;DHT22;14477;51.038;4.588;2022-10-16T12:39:54;28.60;89.30
26909;DHT22;14477;51.038;4.588;2022-10-16T12:44:52;28.40;87.50
26909;DHT22;14477;51.038;4.588;2022-10-16T12:49:56;28.10;85.40
26909;DHT22;14477;51.038;4.588;2022-10-16T12:52:35;28.00;89.60
26909;DHT22;14477;51.038;4.588;2022-10-16T12:55:01;27.80;83.40
26909;DHT22;14477;51.038;4.588;2022-10-16T13:03:44;27.20;80.90
26909;DHT22;14477;51.038;4.588;2022-10-16T13:06:23;27.00;80.70
26909;DHT22;14477;51.038;4.588;2022-10-16T13:25:24;25.80;82.80
26909;DHT22;14477;51.038;4.588;2022-10-16T13:28:05;25.70;81.70
26909;DHT22;14477;51.038;4.588;2022-10-16T13:33:14;25.50;84.20
26909;DHT22;14477;51.038;4.588;2022-10-16T13:35:50;25.30;84.10
26909;DHT22;14477;51.038;4.588;2022-10-16T13:38:21;25.20;82.90
26909;DHT22;14477;51.038;4.588;2022-10-16T13:40:57;25.10;84.20
26909;DHT22;14477;51.038;4.588;2022-10-16T13:43:32;25.10;84.40
26909;DHT22;14477;51.038;4.588;2022-10-16T13:46:02;25.00;84.40
26909;DHT22;14477;51.038;4.588;2022-10-16T13:48:29;25.00;86.60
26909;DHT22;14477;51.038;4.588;2022-10-16T13:50:59;25.00;87.40
26909;DHT22;14477;51.038;4.588;2022-10-16T13:53:25;25.00;86.20
26909;DHT22;14477;51.038;4.588;2022-10-16T13:55:51;25.00;87.70
26909;DHT22;14477;51.038;4.588;2022-10-16T13:58:16;25.00;87.60
26909;DHT22;14477;51.038;4.588;2022-10-16T14:01:11;25.00;87.60
26909;DHT22;14477;51.038;4.588;2022-10-16T14:03:41;25.00;83.20
26909;DHT22;14477;51.038;4.588;2022-10-16T14:06:13;25.00;87.00
26909;DHT22;14477;51.038;4.588;2022-10-16T14:08:44;24.90;85.30
26909;DHT22;14477;51.038;4.588;2022-10-16T14:11:11;24.90;86.40
26909;DHT22;14477;51.038;4.588;2022-10-16T14:13:40;24.90;87.20
26909;DHT22;14477;51.038;4.588;2022-10-16T14:16:11;24.90;86.60
26909;DHT22;14477;51.038;4.588;2022-10-16T14:18:45;24.80;86.40
26909;DHT22;14477;51.038;4.588;2022-10-16T14:21:16;24.80;85.70
26909;DHT22;14477;51.038;4.588;2022-10-16T14:23:42;24.80;85.30
26909;DHT22;14477;51.038;4.588;2022-10-16T14:28:34;24.70;87.70
26909;DHT22;14477;51.038;4.588;2022-10-16T14:31:01;24.60;87.20
26909;DHT22;14477;51.038;4.588;2022-10-16T14:38:36;24.60;85.80
26909;DHT22;14477;51.038;4.588;2022-10-16T14:41:03;24.70;88.10
26909;DHT22;14477;51.038;4.588;2022-10-16T14:43:51;24.70;88.00
26909;DHT22;14477;51.038;4.588;2022-10-16T14:46:21;24.60;84.10
26909;DHT22;14477;51.038;4.588;2022-10-16T14:48:54;24.60;86.90
26909;DHT22;14477;51.038;4.588;2022-10-16T14:51:20;24.60;87.40
26909;DHT22;14477;51.038;4.588;2022-10-16T14:53:47;24.50;87.80
26909;DHT22;14477;51.038;4.588;2022-10-16T14:56:32;24.50;87.80
26909;DHT22;14477;51.038;4.588;2022-10-16T14:58:59;24.50;84.10
26909;DHT22;14477;51.038;4.588;2022-10-16T15:01:26;24.40;87.70
26909;DHT22;14477;51.038;4.588;2022-10-16T15:03:52;24.40;87.90
26909;DHT22;14477;51.038;4.588;2022-10-16T15:06:20;24.30;88.70
26909;DHT22;14477;51.038;4.588;2022-10-16T15:08:45;24.30;88.40
26909;DHT22;14477;51.038;4.588;2022-10-16T15:11:18;24.30;88.60
26909;DHT22;14477;51.038;4.588;2022-10-16T15:13:45;24.20;86.70
26909;DHT22;14477;51.038;4.588;2022-10-16T15:16:13;24.20;88.80
26909;DHT22;14477;51.038;4.588;2022-10-16T15:18:39;24.10;88.50
26909;DHT22;14477;51.038;4.588;2022-10-16T15:21:05;24.10;88.80
26909;DHT22;14477;51.038;4.588;2022-10-16T15:23:30;24.00;88.90
26909;DHT22;14477;51.038;4.588;2022-10-16T15:25:56;24.00;89.10
26909;DHT22;14477;51.038;4.588;2022-10-16T15:28:23;23.90;89.10
26909;DHT22;14477;51.038;4.588;2022-10-16T15:30:54;23.80;89.00
26909;DHT22;14477;51.038;4.588;2022-10-16T15:33:25;23.80;88.10
26909;DHT22;14477;51.038;4.588;2022-10-16T15:35:53;23.70;88.80
26909;DHT22;14477;51.038;4.588;2022-10-16T15:38:21;23.70;89.10
26909;DHT22;14477;51.038;4.588;2022-10-16T15:40:47;23.70;88.80
26909;DHT22;14477;51.038;4.588;2022-10-16T15:43:13;23.60;89.20
26909;DHT22;14477;51.038;4.588;2022-10-16T15:45:39;23.60;89.30
26909;DHT22;14477;51.038;4.588;2022-10-16T15:48:05;23.50;89.90
26909;DHT22;14477;51.038;4.588;2022-10-16T15:50:32;23.40;89.20
26909;DHT22;14477;51.038;4.588;2022-10-16T15:52:58;23.30;89.00
26909;DHT22;14477;51.038;4.588;2022-10-16T15:55:23;23.20;89.20
26909;DHT22;14477;51.038;4.588;2022-10-16T15:57:49;23.10;89.20
26909;DHT22;14477;51.038;4.588;2022-10-16T16:00:17;23.00;89.20
26909;DHT22;14477;51.038;4.588;2022-10-16T16:02:44;23.00;88.90
26909;DHT22;14477;51.038;4.588;2022-10-16T16:05:14;22.90;89.40
26909;DHT22;14477;51.038;4.588;2022-10-16T16:07:40;22.80;89.60
26909;DHT22;14477;51.038;4.588;2022-10-16T16:10:07;22.70;89.80
26909;DHT22;14477;51.038;4.588;2022-10-16T16:12:34;22.60;89.80
26909;DHT22;14477;51.038;4.588;2022-10-16T16:14:59;22.60;90.00
26909;DHT22;14477;51.038;4.588;2022-10-16T16:17:25;22.50;90.10
26909;DHT22;14477;51.038;4.588;2022-10-16T16:19:51;22.40;90.10
26909;DHT22;14477;51.038;4.588;2022-10-16T16:22:17;22.40;90.20
26909;DHT22;14477;51.038;4.588;2022-10-16T16:24:42;22.30;90.10
26909;DHT22;14477;51.038;4.588;2022-10-16T16:27:08;22.30;90.20
26909;DHT22;14477;51.038;4.588;2022-10-16T16:29:34;22.20;90.30
26909;DHT22;14477;51.038;4.588;2022-10-16T16:32:00;22.10;90.30
26909;DHT22;14477;51.038;4.588;2022-10-16T16:34:27;22.00;90.30
26909;DHT22;14477;51.038;4.588;2022-10-16T16:36:54;22.00;90.30
26909;DHT22;14477;51.038;4.588;2022-10-16T16:39:20;21.90;90.40
26909;DHT22;14477;51.038;4.588;2022-10-16T16:41:46;21.90;90.50
26909;DHT22;14477;51.038;4.588;2022-10-16T16:44:13;21.80;90.60
26909;DHT22;14477;51.038;4.588;2022-10-16T16:46:39;21.80;90.60
26909;DHT22;14477;51.038;4.588;2022-10-16T16:49:06;21.80;91.10
26909;DHT22;14477;51.038;4.588;2022-10-16T16:51:33;21.70;90.80
26909;DHT22;14477;51.038;4.588;2022-10-16T16:53:59;21.70;90.70
26909;DHT22;14477;51.038;4.588;2022-10-16T16:56:25;21.60;90.80
26909;DHT22;14477;51.038;4.588;2022-10-16T16:58:54;21.60;90.80
26909;DHT22;14477;51.038;4.588;2022-10-16T17:01:21;21.50;90.70
26909;DHT22;14477;51.038;4.588;2022-10-16T17:03:48;21.50;90.80
26909;DHT22;14477;51.038;4.588;2022-10-16T17:06:15;21.50;91.00
26909;DHT22;14477;51.038;4.588;2022-10-16T17:08:41;21.40;91.00
26909;DHT22;14477;51.038;4.588;2022-10-16T17:11:12;21.30;91.00
26909;DHT22;14477;51.038;4.588;2022-10-16T17:13:38;21.30;90.80
26909;DHT22;14477;51.038;4.588;2022-10-16T17:16:05;21.20;91.20
26909;DHT22;14477;51.038;4.588;2022-10-16T17:18:31;21.20;91.20
26909;DHT22;14477;51.038;4.588;2022-10-16T17:21:04;21.20;91.30
26909;DHT22;14477;51.038;4.588;2022-10-16T17:23:30;21.10;91.10
26909;DHT22;14477;51.038;4.588;2022-10-16T17:25:56;21.20;91.50
26909;DHT22;14477;51.038;4.588;2022-10-16T17:28:21;21.10;91.50
26909;DHT22;14477;51.038;4.588;2022-10-16T17:30:47;21.10;91.40
26909;DHT22;14477;51.038;4.588;2022-10-16T17:33:13;21.00;91.40
26909;DHT22;14477;51.038;4.588;2022-10-16T17:35:40;21.00;91.50